Погода Мельчор-Окампона 2 недели

Мехико, Мексика

01 - 14 марта
  • 01марта
    Сегодня
    +9°
    +29°
    Практически безоблачно
    ВремяПогодаТемператураВлажностьДавлениеВетер, м/сВероятность осадков
    00:00Небольшая облачность+19°C46 %593 мм1.1 м/с2 %
    03:00Небольшая облачность+13°C56 %590 мм1.5 м/с2 %
    06:00Небольшая облачность+12°C58 %589 мм1.3 м/с3 %
    09:00Облачно с прояснениями+15°C38 %592 мм0.5 м/с2 %
    12:00Небольшая облачность+23°C21 %594 мм0.3 м/с2 %
    15:00Практически безоблачно+27°C14 %593 мм0.7 м/с2 %
    18:00Небольшая облачность+27°C14 %592 мм3.1 м/с3 %
    21:00Практически безоблачно+19°C29 %592 мм2.5 м/с4 %
  • 02марта
    Суббота
    +9°
    +28°
    Ясно и безоблачно
    ВремяПогодаТемператураВлажностьДавлениеВетер, м/сВероятность осадков
    00:00Ясно и безоблачно+19°C39 %593 мм1.0 м/с4 %
    03:00Ясно и безоблачно+13°C48 %590 мм0.9 м/с4 %
    06:00Ясно и безоблачно+11°C49 %589 мм0.2 м/с3 %
    09:00Небольшая облачность+15°C37 %592 мм0.5 м/с2 %
    12:00Ясно и безоблачно+22°C20 %594 мм0.1 м/с2 %
    15:00Ясно и безоблачно+26°C14 %592 мм1.2 м/с2 %
    18:00Практически безоблачно+27°C13 %592 мм2.2 м/с2 %
    21:00Практически безоблачно+19°C23 %591 мм1.4 м/с2 %
  • 03марта
    Воскресенье
    +10°
    +29°
    Ясно и безоблачно
    ВремяПогодаТемператураВлажностьДавлениеВетер, м/сВероятность осадков
    00:00Ясно и безоблачно+19°C32 %593 мм0.3 м/с2 %
    03:00Практически безоблачно+14°C40 %589 мм0.9 м/с2 %
    06:00Ясно и безоблачно+11°C44 %588 мм1.1 м/с2 %
    09:00Ясно и безоблачно+15°C26 %591 мм0.5 м/с2 %
    12:00Ясно и безоблачно+23°C15 %593 мм1.1 м/с2 %
    15:00Ясно и безоблачно+27°C11 %591 мм0.7 м/с2 %
    18:00Облачно с прояснениями+27°C14 %591 мм4.2 м/с2 %
    21:00Облачно с прояснениями+20°C27 %591 мм1.8 м/с2 %
  • 04марта
    Понедельник
    +10°
    +28°
    Небольшая облачность
    ВремяПогодаТемператураВлажностьДавлениеВетер, м/сВероятность осадков
    00:00Небольшая облачность+19°C35 %592 мм1.5 м/с2 %
    03:00Небольшая облачность+14°C41 %589 мм0.8 м/с2 %
    06:00Ясно и безоблачно+11°C45 %588 мм0.5 м/с2 %
    09:00Ясно и безоблачно+15°C30 %591 мм0.6 м/с2 %
    12:00Ясно и безоблачно+23°C18 %592 мм1.1 м/с2 %
    15:00Небольшая облачность+27°C13 %591 мм2.5 м/с2 %
    18:00Практически безоблачно+27°C14 %590 мм6.0 м/с2 %
    21:00Ясно и безоблачно+20°C23 %590 мм0.9 м/с2 %
  • 05марта
    Вторник
    +10°
    +29°
    Ясно и безоблачно
    ВремяПогодаТемператураВлажностьДавлениеВетер, м/сВероятность осадков
    00:00Ясно и безоблачно+21°C28 %592 мм0.8 м/с2 %
    03:00Ясно и безоблачно+13°C38 %588 мм1.2 м/с2 %
    06:00Ясно и безоблачно+11°C38 %587 мм0.9 м/с2 %
    09:00Ясно и безоблачно+15°C26 %590 мм0.4 м/с2 %
    12:00Ясно и безоблачно+23°C10 %591 мм0.5 м/с2 %
    15:00Ясно и безоблачно+28°C6 %590 мм0.4 м/с2 %
    18:00Облачно с прояснениями+28°C7 %590 мм2.3 м/с2 %
    21:00Ясно и безоблачно+20°C17 %590 мм1.2 м/с2 %
Мы используем cookies
Соглашаюсь